Custom Search

Airport METAR Reports

 

YMAV - Avalon Airport, Australia
Distance from station: 0 0km
Updated: 01/05/2017 08:00
Overcast
Overcast
 Wind from N
Wind: N 20 km/h
Temperature: 15°C
Dew Point: 11°C
Humidity: 77%
Barometer: 1015 hPa
Clouds: Overcast
Visibility: 10 km
Cloud details: Overcast 1768 m
2017/04/30 22:00 YMAV 302200Z AUTO 35011KT 9999 // OVC058 15/11 Q1015
YMML - Melbourne Intl A, Australia
Distance from station: NE 50km
Updated: 01/05/2017 08:00
Mostly cloudy
Mostly cloudy
 Wind from N
Wind: N 19 km/h
Temperature: 14°C
Dew Point: 8°C
Humidity: 67%
Barometer: 1016 hPa
Clouds: Mostly cloudy
Visibility: 10 km
Cloud details: Partly cloudy 975 m
Mostly cloudy 1615 m
2017/04/30 22:00 YMML 302200Z 36010KT 9999 SCT032 BKN053 14/08 Q1016 FM2230 34017G27KT 9999 SCT035 FM2200 MOD TURB BLW 5000FT
YMEN - Melbourne/Essend, Australia
Distance from station: NE 51km
Updated: 01/05/2017 08:00
Overcast
Overcast
 Wind from N
Wind: N 19 km/h
Temperature: 14°C
Dew Point: 9°C
Humidity: 72%
Barometer: 1016 hPa
Clouds: Overcast
Visibility: 10 km
Cloud details: Partly cloudy 1067 m
Overcast 1615 m
2017/04/30 22:00 YMEN 302200Z AUTO 36010KT 9999 // SCT035 OVC053 14/09 Q1016
 
YWGT - Wangaratta Arp, Australia
Distance from station: NE 241km
Updated: 01/05/2017 08:00
Overcast
Overcast
 Wind from calm
Wind: Calm
Temperature: 11°C
Dew Point: 11°C
Humidity: 100%
Barometer: 1018 hPa
Clouds: Overcast
Visibility: 10 km
Cloud details: Overcast 1311 m
2017/04/30 22:00 YWGT 302200Z AUTO 00000KT 9999 // OVC043 11/11 Q1018
YMAY - Albury Airport, Australia
Distance from station: NE 308km
Updated: 01/05/2017 08:00
Overcast
Overcast
 Wind from calm
Wind: Calm
Temperature: 11°C
Dew Point: 11°C
Humidity: 100%
Barometer: 1019 hPa
Clouds: Overcast
Visibility: 10 km
Cloud details: Overcast 1524 m
2017/04/30 22:00 YMAY 302200Z AUTO 00000KT 9999 // OVC050 11/11 Q1019
YMTG - Mount Gambier, Australia
Distance from station: W 326km
Updated: 01/05/2017 08:00
Overcast
Overcast
 Wind from N
Wind: N 20 km/h
Temperature: 13°C
Dew Point: 10°C
Humidity: 82%
Barometer: 1013 hPa
Clouds: Overcast
Visibility: 10 km
Cloud details: Partly cloudy 945 m
Overcast 1463 m
2017/04/30 22:00 YMTG 302200Z AUTO 36011KT 9999 // SCT031 OVC048 13/10 Q1013
 
YNAR - Narrandera, Australia
Distance from station: NNE 413km
Updated: 01/05/2017 08:00

 Wind from ESE
Wind: ESE 9 km/h
Temperature: 10°C
Wind Chill: 9°C
Dew Point: 10°C
Humidity: 100%
Barometer: 1018 hPa
2017/04/30 22:00 YNAR 302200Z AUTO 11005KT //// // ////// 10/10 Q1018
YSWG - Wagga Wagga(Cv/M, Australia
Distance from station: NE 418km
Updated: 01/05/2017 08:00
Mostly cloudy
Mostly cloudy
 Wind from E
Wind: E 13 km/h
Temperature: 10°C
Wind Chill: 8°C
Dew Point: 8°C
Humidity: 88%
Barometer: 1018 hPa
Clouds: Mostly cloudy
Visibility: 10 km
Cloud details: Few Clouds 1372 m
Mostly cloudy 7315 m
2017/04/30 22:00 YSWG 302200Z 09007KT 9999 FEW045 BKN240 10/08 Q1018
YCOM - Cooma Snowy Mtns, Australia
Distance from station: ENE 441km
Updated: 01/05/2017 08:00
Clear
Clear
 Wind from NNE
Wind: NNE 13 km/h
Temperature: 9°C
Wind Chill: 7°C
Dew Point: 7°C
Humidity: 87%
Barometer: 1017 hPa
Clouds: Clear
Visibility: 10 km
2017/04/30 22:00 YCOM 302200Z AUTO 03007KT 9999 // NCD 09/07 Q1017
 
YGTH - Griffith Arpt, Australia
Distance from station: NNE 444km
Updated: 01/05/2017 08:00
Clear
Clear
 Wind from E
Wind: E 7 km/h
Temperature: 11°C
Dew Point: 8°C
Humidity: 82%
Barometer: 1018 hPa
Clouds: Clear
Visibility: 10 km
2017/04/30 22:00 YGTH 302200Z AUTO 10004KT 9999 // NCD 11/08 Q1018
YMLT - Launceston Airpo, Australia
Distance from station: SSE 451km
Updated: 01/05/2017 08:29
Light rain, Showers, Partly cloudy
Light rain, Showers, Partly cloudy
 Wind from N
Wind: N 35 km/h
Temperature: 13°C
Dew Point: 12°C
Humidity: 94%
Barometer: 1009 hPa
Summary: Light rain, Showers
Clouds: Partly cloudy
Visibility: 10 km
Cloud details: Partly cloudy 213 m
Partly cloudy 396 m
Partly cloudy 1311 m
2017/04/30 22:29 YMLT 302229Z AUTO 35019KT 9999 -SHRA SCT007 SCT013 SCT043 13/12 Q1009
YMIA - Mildura Arpt, Australia
Distance from station: NNW 474km
Updated: 01/05/2017 08:00
Overcast
Overcast
 Wind from NNE
Wind: NNE 6 km/h
Temperature: 11°C
Dew Point: 10°C
Humidity: 94%
Barometer: 1018 hPa
Clouds: Overcast
Visibility: 10 km
Cloud details: Overcast 1494 m
2017/04/30 22:00 YMIA 302200Z AUTO 02003KT 9999 // OVC049 11/10 Q1018
 
YMER - Merimbula Arpt, Australia
Distance from station: ENE 494km
Updated: 01/05/2017 08:00
Clear
Clear
 Wind from SSW
Wind: SSW 4 km/h
Temperature: 10°C
Dew Point: 9°C
Humidity: 94%
Barometer: 1015 hPa
Clouds: Clear
Visibility: 10 km
2017/04/30 22:00 YMER 302200Z AUTO 21002KT 9999 // NCD 10/09 Q1015
YSCB - Canberra (civ/Mi, Australia
Distance from station: NE 518km
Updated: 01/05/2017 08:30
Patches of fog, Mostly cloudy
Patches of fog, Mostly cloudy
 Wind from calm
Wind: Calm
Summary: Patches of Fog
Clouds: Mostly cloudy
Visibility: 10 km
Cloud details: Few Clouds 91 m
Mostly cloudy 7010 m
2017/04/30 22:30 YSCB 302230Z 00000KT 9999 4000NE BCFG FEW003 BKN230 07/// Q1019
YMHB - Hobart/Tasmania, Australia
Distance from station: SSE 590km
Updated: 01/05/2017 08:00
Mostly cloudy
Mostly cloudy
 Wind from N
Wind: N 22 km/h
Temperature: 15°C
Dew Point: 9°C
Humidity: 68%
Barometer: 1004 hPa
Clouds: Mostly cloudy
Visibility: 10 km
Cloud details: Few Clouds 762 m
Partly cloudy 1219 m
Mostly cloudy 7620 m
2017/04/30 22:00 YMHB 302200Z 36012KT 9999 FEW025 SCT040 BKN250 15/09 Q1004